Station: Cape Borda

  Atmospheric Gas Attenuation - ITU Rec 676-11   --------------- db/100km ---------------
Date Time Temp RH % AH g/m3 Dew Point Wind Direction Speed kph Gust kph Barometer mB Rainfall Since 9am 24GHz 47GHz 76GHz 122GHz 134GHz 241GHz
27 12:10 12.9 68 7.66 7.1 22 28 1026.2 0 17.6 25.1 37.1 96.9 88.2 302.4
27 12:00 13.3 68 7.86 7.5 20 26 1026.2 0 18.0 25.3 37.7 98.5 90.3 309.9
27 11:50 13 66 7.49 6.8 22 26 1026.4 0 17.2 24.8 36.3 95.0 85.9 294.3
27 11:40 13.5 67 7.84 7.5 20 26 1026.5 0 18.0 25.3 37.5 98.1 89.8 308.3
27 11:30 12.8 65 7.28 6.4 19 26 1026.5 0 16.8 24.6 35.6 93.1 83.4 285.6
27 11:20 13.1 66 7.53 6.9 19 22 1026.6 0 17.3 24.9 36.5 95.3 86.3 295.8
27 11:10 12.4 69 7.54 6.9 20 22 1026.6 0 17.4 25.1 36.8 96.3 87.2 298.9
27 11:00 12.6 67 7.41 6.6 19 24 1026.7 0 17.1 24.8 36.2 94.7 85.3 292.2
27 10:50 12.7 69 7.68 7.2 17 20 1026.7 0 17.7 25.2 37.2 97.4 88.7 304.2
27 10:40 12.4 66 7.21 6.2 19 22 1026.9 0 16.7 24.6 35.5 92.9 82.9 283.9
27 10:30 13 68 7.71 7.2 17 22 1026.9 0 17.7 25.2 37.2 97.4 88.7 304.4
27 10:20 12.2 68 7.34 6.5 15 20 1027.1 0 17.0 24.8 36.1 94.5 84.8 290.6
27 10:10 12.6 67 7.41 6.6 15 19 1027.1 0 17.1 24.8 36.2 94.7 85.3 292.3
27 10:00 12.5 69 7.59 7 15 17 1027.1 0 17.5 25.2 37.0 96.8 87.8 300.9
27 09:50 12.3 68 7.38 6.6 13 17 1027.3 0 17.0 24.9 36.3 94.8 85.3 292.1
27 09:40 12.4 67 7.32 6.5 15 17 1027.3 0 16.9 24.8 36.0 94.0 84.4 289.0
27 09:30 12 67 7.14 6.1 13 19 1027.3 0 16.5 24.6 35.5 92.6 82.5 282.3
27 09:20 12 67 7.14 6.1 15 17 1027.4 0 16.5 24.6 35.5 92.6 82.5 282.3
27 09:10 11.9 66 6.99 5.8 13 17 1027.4 0 16.2 24.4 34.9 91.2 80.6 275.9
27 09:00 11.8 67 7.05 5.9 11 19 1027.4 0 16.4 24.5 35.2 91.9 81.5 278.9
27 08:50 11.6 67 6.96 5.7 13 15 1027.4 0.2 16.2 24.4 34.9 91.2 80.6 275.5
27 08:40 11.5 66 6.82 5.4 13 15 1027.4 0.2 15.9 24.2 34.4 89.9 78.9 269.6
27 08:30 11.4 65 6.67 5.1 13 17 1027.2 0.2 15.6 24.0 33.9 88.4 77.0 263.1
27 08:20 11.5 65 6.71 5.2 17 19 1027.3 0.2 15.7 24.0 34.0 88.7 77.4 264.6
27 08:10 11.2 67 6.79 5.3 13 15 1027.2 0.2 15.8 24.2 34.4 89.9 78.8 269.2
27 08:00 11.2 66 6.69 5.1 9 13 1027 0.2 15.6 24.1 34.0 88.8 77.5 264.6
27 07:50 10.8 66 6.52 4.7 9 11 1027.1 0.2 15.3 23.9 33.5 87.5 75.7 258.3
27 07:40 10.9 67 6.67 5 6 6 1027.1 0.2 15.6 24.1 34.1 89.0 77.5 264.7
27 07:30 10.5 68 6.6 4.9 6 9 1027 0.2 15.5 24.1 34.0 88.7 77.0 262.9
27 07:20 10.6 68 6.64 4.9 7 7 1027.1 0.2 15.5 24.2 34.1 89.0 77.4 264.4
27 07:10 10.3 68 6.51 4.7 0 0 1026.9 0.2 15.3 24.0 33.7 87.9 76.0 259.4
27 07:00 9.9 72 6.72 5.1 6 7 1026.8 0.2 15.7 24.5 34.7 90.6 79.1 270.3
27 06:50 9.7 73 6.73 5.1 6 6 1026.7 0.2 15.8 24.5 34.8 90.9 79.5 271.4
27 06:40 9.4 77 6.97 5.6 6 7 1026.6 0.2 16.3 25.0 35.9 93.8 82.9 283.6
27 06:30 8.8 78 6.79 5.2 7 9 1026.4 0.2 15.9 24.9 35.4 92.6 81.2 277.3
27 06:20 8.4 77 6.53 4.6 6 7 1026.2 0.2 15.4 24.6 34.6 90.2 78.1 266.5
27 06:10 8.2 79 6.62 4.8 6 6 1026 0.2 15.6 24.7 35.0 91.4 79.5 271.3
27 06:00 8.3 79 6.66 4.9 7 9 1025.9 0.2 15.7 24.8 35.1 91.7 79.9 272.8
27 05:50 7.9 80 6.57 4.7 7 9 1025.7 0.2 15.5 24.7 34.9 91.2 79.1 270.0
27 05:40 8.1 77 6.41 4.3 9 9 1025.6 0.2 15.1 24.4 34.2 89.2 76.8 261.8
27 05:30 8.3 76 6.41 4.3 4 9 1025.4 0.2 15.1 24.4 34.1 89.0 76.6 261.1
27 05:10 8.6 77 6.62 4.8 6 7 1025.2 0.2 15.6 24.6 34.8 90.9 79.0 269.8
27 04:40 8 75 6.2 3.8 9 9 1024.8 0.2 14.7 24.1 33.4 87.0 74.1 252.2
27 04:30 8.4 74 6.28 4 2 7 1024.8 0.2 14.9 24.1 33.5 87.4 74.7 254.6
27 04:20 8.2 75 6.28 4 0 0 1024.7 0.2 14.9 24.1 33.6 87.6 74.9 255.3
27 04:10 7.8 78 6.37 4.2 7 7 1024.7 0.2 15.1 24.4 34.1 89.0 76.5 260.7
27 04:00 7.6 78 6.29 4 9 13 1024.7 0.2 14.9 24.3 33.9 88.4 75.6 257.7
27 03:50 7.7 78 6.33 4.1 11 11 1024.7 0.2 15.0 24.4 34.0 88.7 76.0 259.2
27 03:40 7.5 79 6.33 4.1 7 9 1024.7 0.2 15.0 24.4 34.1 88.9 76.2 259.9
27 03:30 7.3 81 6.4 4.3 11 11 1024.7 0.2 15.2 24.6 34.5 89.9 77.4 263.8
27 03:20 7.4 81 6.44 4.4 11 11 1024.6 0.2 15.2 24.6 34.6 90.2 77.8 265.3
27 03:10 7.3 81 6.4 4.3 11 13 1024.6 0.2 15.2 24.6 34.4 89.9 77.4 263.8
27 03:00 7.7 77 6.25 3.9 9 11 1024.7 0.2 14.8 24.2 33.7 87.9 75.0 255.5
27 02:50 8.1 76 6.33 4.1 9 9 1024.6 0.2 15.0 24.3 33.8 88.3 75.7 257.9
27 02:40 8.1 77 6.41 4.3 9 9 1024.6 0.2 15.1 24.4 34.1 89.1 76.7 261.6
27 02:30 8 79 6.53 4.6 11 11 1024.6 0.2 15.4 24.6 34.7 90.5 78.4 267.5
27 02:20 8 80 6.62 4.8 11 11 1024.6 0.2 15.6 24.7 35.0 91.5 79.6 271.7
27 02:10 8.1 81 6.74 5 11 11 1024.6 0.2 15.9 24.9 35.5 92.7 81.1 277.0
27 02:00 8.3 80 6.75 5.1 9 9 1024.7 0.2 15.9 24.9 35.4 92.6 81.0 276.8
27 01:50 8.4 81 6.87 5.3 9 9 1024.7 0.2 16.1 25.0 35.9 93.7 82.5 282.1
27 01:40 8.6 81 6.96 5.5 11 11 1024.7 0.2 16.3 25.1 36.2 94.5 83.5 285.6
27 01:30 8.7 81 7.01 5.6 11 13 1024.7 0.2 16.4 25.2 36.3 94.9 84.1 287.6
27 01:20 8.9 80 7.01 5.6 11 13 1024.7 0.2 16.4 25.1 36.2 94.7 83.9 286.8
27 01:10 8.9 80 7.01 5.6 11 13 1024.8 0.2 16.4 25.1 36.2 94.7 83.9 286.9
27 01:00 8.9 81 7.1 5.8 11 13 1024.8 0.2 16.6 25.3 36.6 95.7 85.1 291.1
27 00:50 9 80 7.06 5.7 9 11 1024.9 0.2 16.5 25.2 36.4 95.1 84.5 288.9
27 00:40 8.9 81 7.1 5.8 9 9 1024.9 0.2 16.6 25.3 36.6 95.7 85.1 291.1
27 00:30 9.1 80 7.1 5.8 9 11 1024.9 0.2 16.6 25.2 36.5 95.4 84.9 290.4
27 00:20 9 81 7.14 5.9 11 11 1024.9 0.2 16.7 25.3 36.7 96.0 85.5 292.6
27 00:10 8.8 83 7.23 6.1 11 13 1024.9 0.2 16.9 25.5 37.2 97.2 87.0 297.6
27 00:00 8.9 84 7.36 6.3 13 15 1024.9 0.2 17.1 25.7 37.7 98.5 88.6 303.4
26 23:50 9.1 83 7.37 6.4 13 13 1024.9 0.2 17.2 25.7 37.6 98.4 88.5 303.1
26 23:40 8.9 86 7.54 6.7 13 15 1024.9 0.2 17.5 26.0 38.4 100.5 91.1 312.0
26 23:30 8.9 86 7.54 6.7 9 15 1025 0.2 17.5 26.0 38.4 100.5 91.1 312.1
26 23:20 9.1 84 7.46 6.5 9 9 1025.2 0.2 17.4 25.8 38.0 99.4 89.8 307.5
26 23:10 9.2 82 7.32 6.3 7 9 1025.2 0.2 17.1 25.6 37.4 97.7 87.8 300.4
26 23:00 9.2 82 7.32 6.3 9 15 1025.2 0.2 17.1 25.6 37.4 97.7 87.8 300.4
26 22:50 9.2 81 7.24 6.1 9 9 1025.2 0.2 16.9 25.5 37.0 96.9 86.7 296.7
26 22:40 8.7 86 7.44 6.5 9 9 1025.2 0.2 17.3 25.9 38.1 99.7 90.0 308.1
26 22:30 8.7 85 7.35 6.3 9 9 1025.2 0.2 17.1 25.8 37.7 98.7 88.7 303.8
26 22:20 8.7 85 7.35 6.3 9 9 1025.2 0.2 17.1 25.8 37.7 98.7 88.7 303.8
26 22:10 8.6 87 7.48 6.6 9 9 1025.2 0.2 17.4 26.0 38.3 100.3 90.6 310.4
26 22:00 8.3 89 7.5 6.6 9 9 1025.1 0.2 17.5 26.1 38.5 100.9 91.2 312.6
26 21:50 8.2 90 7.54 6.7 9 9 1025.1 0.2 17.6 26.2 38.8 101.4 91.9 314.9
26 21:40 8.2 91 7.62 6.8 11 11 1025.1 0.2 17.7 26.4 39.1 102.3 93.0 318.8
26 21:30 8 92 7.61 6.8 13 13 1025.1 0.2 17.7 26.4 39.1 102.5 93.1 319.1
26 21:20 7.8 92 7.51 6.6 11 13 1025.1 0.2 17.5 26.3 38.8 101.6 92.0 315.1
26 21:10 7.8 91 7.43 6.4 11 11 1025.1 0.2 17.3 26.2 38.5 100.7 90.9 311.2
26 21:00 7.8 91 7.43 6.4 11 13 1025.2 0.2 17.3 26.2 38.5 100.7 90.9 311.2
26 20:50 7.9 90 7.4 6.4 11 11 1025.2 0.2 17.3 26.1 38.3 100.3 90.3 309.3
26 20:40 8.2 89 7.46 6.5 11 13 1025 0.2 17.4 26.1 38.4 100.5 90.8 311.0
26 20:30 8.6 87 7.48 6.6 15 17 1024.9 0.2 17.4 26.0 38.3 100.2 90.6 310.3
26 20:20 8.8 86 7.49 6.6 15 19 1024.9 0.2 17.4 26.0 38.2 100.1 90.5 310.0
26 20:10 8.8 86 7.49 6.6 13 17 1024.9 0.2 17.4 26.0 38.2 100.1 90.5 310.0
26 20:00 9 84 7.41 6.4 13 17 1024.8 0.2 17.3 25.8 37.8 98.9 89.2 305.4
26 19:50 9.2 84 7.5 6.6 11 13 1024.7 0.2 17.4 25.9 38.1 99.7 90.2 308.9
26 19:40 9 86 7.58 6.8 11 15 1024.5 0.2 17.6 26.0 38.5 100.8 91.5 313.4
26 19:30 8.8 86 7.49 6.6 13 15 1024.4 0.2 17.4 26.0 38.2 100.0 90.5 309.9
26 19:20 8.8 84 7.31 6.2 11 13 1024.3 0.2 17.0 25.6 37.5 98.0 88.0 301.3
26 19:10 8.8 85 7.4 6.4 13 15 1024.2 0.2 17.2 25.8 37.8 99.0 89.2 305.6

Last Refresh: 27-Sep-2020 12:27:56

Most of the information presented on this site is sourced from the Bureau of Meteorology.  Copyright in all material sourced from the Bureau of Meteorology resides with the Commonwealth of Australia.